createdAt,value
2016-12-21T00:00:16.231Z,1021.66
2016-12-21T00:01:08.134Z,1021.68
2016-12-21T00:01:59.397Z,1021.64
2016-12-21T00:02:51.993Z,1021.74
2016-12-21T00:03:39.875Z,1021.78
2016-12-21T00:04:31.873Z,1021.74
2016-12-21T00:05:23.286Z,1021.68
2016-12-21T00:06:15.264Z,1021.73
2016-12-21T00:07:07.533Z,1021.81
2016-12-21T00:07:56.340Z,1021.73
2016-12-21T00:08:47.815Z,1021.71
2016-12-21T00:09:36.418Z,1021.79
2016-12-21T00:10:27.100Z,1021.74
2016-12-21T00:11:18.292Z,1021.74
2016-12-21T00:12:08.246Z,1021.71
2016-12-21T00:12:59.912Z,1021.71
2016-12-21T00:13:48.894Z,1021.77
2016-12-21T00:14:39.238Z,1021.83
2016-12-21T00:15:29.249Z,1021.83
2016-12-21T00:16:21.254Z,1021.83
2016-12-21T00:17:09.886Z,1021.82
2016-12-21T00:18:00.870Z,1021.89
2016-12-21T00:18:50.357Z,1021.77
2016-12-21T00:19:39.900Z,1021.79
2016-12-21T00:20:30.866Z,1021.78
2016-12-21T00:21:20.443Z,1021.74
2016-12-21T00:22:10.976Z,1021.77
2016-12-21T00:22:59.075Z,1021.68
2016-12-21T00:23:49.835Z,1021.72
2016-12-21T00:24:41.460Z,1021.74
2016-12-21T00:25:30.656Z,1021.73
2016-12-21T00:26:21.874Z,1021.69
2016-12-21T00:27:12.935Z,1021.74
2016-12-21T00:28:04.589Z,1021.75
2016-12-21T00:28:53.267Z,1021.8
2016-12-21T00:29:43.104Z,1021.78
2016-12-21T00:30:33.447Z,1021.86
2016-12-21T00:31:22.950Z,1021.91
2016-12-21T00:32:12.942Z,1021.94
2016-12-21T00:33:06.223Z,1021.91
2016-12-21T00:33:56.760Z,1021.88
2016-12-21T00:34:47.642Z,1021.96
2016-12-21T00:35:39.608Z,1021.97
2016-12-21T00:36:28.455Z,1021.92
2016-12-21T00:37:18.195Z,1021.88
2016-12-21T00:38:09.303Z,1021.84
2016-12-21T00:38:59.744Z,1021.87
2016-12-21T00:39:48.229Z,1021.87
2016-12-21T00:40:39.571Z,1021.78
2016-12-21T00:41:29.300Z,1021.79
2016-12-21T00:42:19.890Z,1021.77
2016-12-21T00:43:10.266Z,1021.77
2016-12-21T00:44:02.479Z,1021.68
2016-12-21T00:44:52.514Z,1021.71
2016-12-21T00:45:43.314Z,1021.7
2016-12-21T00:46:32.672Z,1021.81
2016-12-21T00:47:22.371Z,1021.76
2016-12-21T00:48:11.226Z,1021.71
2016-12-21T00:49:02.655Z,1021.85
2016-12-21T00:49:50.650Z,1021.83
2016-12-21T00:50:41.613Z,1021.76
2016-12-21T00:51:30.265Z,1021.66
2016-12-21T00:52:25.442Z,1021.69
2016-12-21T00:53:16.252Z,1021.69
2016-12-21T00:54:05.222Z,1021.72
2016-12-21T00:54:55.739Z,1021.73
2016-12-21T00:55:45.995Z,1021.67
2016-12-21T00:58:25.637Z,1021.84
2016-12-21T00:59:14.864Z,1021.76
2016-12-21T01:00:06.456Z,1021.79
2016-12-21T01:00:55.910Z,1021.77
2016-12-21T01:01:46.570Z,1021.75
2016-12-21T01:02:36.355Z,1021.73
2016-12-21T01:03:26.765Z,1021.67
2016-12-21T01:04:14.550Z,1021.71
2016-12-21T01:05:04.996Z,1021.67
2016-12-21T01:05:54.261Z,1021.64
2016-12-21T01:06:43.102Z,1021.74
2016-12-21T01:07:35.073Z,1021.79
2016-12-21T01:08:26.620Z,1021.71
2016-12-21T01:09:15.413Z,1021.74
2016-12-21T01:10:05.157Z,1021.76
2016-12-21T01:10:54.934Z,1021.75
2016-12-21T01:11:44.937Z,1021.72
2016-12-21T01:12:35.974Z,1021.73
2016-12-21T01:13:24.404Z,1021.71
2016-12-21T01:14:14.881Z,1021.73
2016-12-21T01:15:04.849Z,1021.61
2016-12-21T01:15:53.868Z,1021.74
2016-12-21T01:16:44.501Z,1021.74
2016-12-21T01:17:34.780Z,1021.71
2016-12-21T01:18:23.660Z,1021.83
2016-12-21T01:19:13.988Z,1021.72
2016-12-21T01:20:02.450Z,1021.79
2016-12-21T01:20:52.017Z,1021.74
2016-12-21T01:21:40.334Z,1021.66
2016-12-21T01:22:32.417Z,1021.68
2016-12-21T01:23:20.499Z,1021.68
2016-12-21T01:24:09.492Z,1021.65
2016-12-21T01:24:58.347Z,1021.67
2016-12-21T01:25:49.847Z,1021.68
2016-12-21T01:26:38.670Z,1021.67
2016-12-21T01:27:28.464Z,1021.67
2016-12-21T01:28:19.327Z,1021.61
2016-12-21T01:29:09.244Z,1021.63
2016-12-21T01:30:01.182Z,1021.65
2016-12-21T01:30:49.115Z,1021.57
2016-12-21T01:31:40.035Z,1021.55
2016-12-21T01:32:27.799Z,1021.61
2016-12-21T01:33:18.421Z,1021.56
2016-12-21T01:34:09.228Z,1021.55
2016-12-21T01:34:59.612Z,1021.57
2016-12-21T01:35:49.380Z,1021.55
2016-12-21T01:36:42.962Z,1021.53
2016-12-21T01:37:34.421Z,1021.59
2016-12-21T01:38:24.100Z,1021.63
2016-12-21T01:39:13.980Z,1021.68
2016-12-21T01:40:04.097Z,1021.68
2016-12-21T01:40:53.416Z,1021.66
2016-12-21T01:41:41.960Z,1021.63
2016-12-21T01:42:31.320Z,1021.69
2016-12-21T01:43:19.860Z,1021.72
2016-12-21T01:44:11.413Z,1021.71
2016-12-21T01:45:00.518Z,1021.69
2016-12-21T01:45:50.338Z,1021.71
2016-12-21T01:46:39.306Z,1021.72
2016-12-21T01:47:28.127Z,1021.76
2016-12-21T01:48:16.925Z,1021.8
2016-12-21T01:49:05.809Z,1021.86
2016-12-21T01:49:56.586Z,1021.89
2016-12-21T01:50:45.077Z,1021.94
2016-12-21T01:51:34.485Z,1021.97
2016-12-21T01:52:24.733Z,1022.01
2016-12-21T01:53:13.407Z,1021.99
2016-12-21T01:54:03.713Z,1021.97
2016-12-21T01:54:52.616Z,1021.92
2016-12-21T01:55:41.169Z,1021.98
2016-12-21T01:56:30.465Z,1022.01
2016-12-21T01:57:20.555Z,1022.01
2016-12-21T01:58:10.490Z,1022.05
2016-12-21T01:58:59.619Z,1022
2016-12-21T01:59:47.093Z,1022.01
2016-12-21T02:00:36.990Z,1022.05
2016-12-21T02:01:25.542Z,1022
2016-12-21T02:02:15.053Z,1021.92
2016-12-21T02:03:02.923Z,1021.88
2016-12-21T02:03:52.148Z,1021.83
2016-12-21T02:04:41.287Z,1021.8
2016-12-21T02:05:30.472Z,1021.83
2016-12-21T02:06:21.405Z,1021.81
2016-12-21T02:07:10.434Z,1021.8
2016-12-21T02:08:00.042Z,1021.82
2016-12-21T02:08:48.474Z,1021.78
2016-12-21T02:09:37.523Z,1021.86
2016-12-21T02:10:25.903Z,1021.82
2016-12-21T02:11:15.644Z,1021.85
2016-12-21T02:12:05.366Z,1021.77
2016-12-21T02:12:54.447Z,1021.83
2016-12-21T02:13:46.721Z,1021.86
2016-12-21T02:14:34.533Z,1021.87
2016-12-21T02:15:24.366Z,1021.82
2016-12-21T02:16:16.151Z,1021.81
2016-12-21T02:17:04.394Z,1021.74
2016-12-21T02:17:52.492Z,1021.78
2016-12-21T02:18:41.886Z,1021.84
2016-12-21T02:19:31.728Z,1021.82
2016-12-21T02:20:19.934Z,1021.81
2016-12-21T02:21:09.383Z,1021.78
2016-12-21T02:21:58.443Z,1021.76
2016-12-21T02:22:47.918Z,1021.78
2016-12-21T02:23:36.018Z,1021.78
2016-12-21T02:24:25.166Z,1021.78
2016-12-21T02:25:15.458Z,1021.75
2016-12-21T02:26:03.964Z,1021.78
2016-12-21T02:26:54.514Z,1021.77
2016-12-21T02:27:42.898Z,1021.79
2016-12-21T02:28:32.426Z,1021.7
2016-12-21T02:29:21.589Z,1021.74
2016-12-21T02:30:09.423Z,1021.76
2016-12-21T02:30:58.865Z,1021.77
2016-12-21T02:31:47.922Z,1021.82
2016-12-21T02:32:36.633Z,1021.89
2016-12-21T02:33:26.324Z,1021.88
2016-12-21T02:34:15.626Z,1021.96
2016-12-21T02:35:03.972Z,1021.93
2016-12-21T02:35:55.370Z,1021.89
2016-12-21T02:36:46.018Z,1021.89
2016-12-21T02:37:35.692Z,1021.86
2016-12-21T02:38:24.570Z,1021.83
2016-12-21T02:39:14.118Z,1021.85
2016-12-21T02:40:03.850Z,1021.79
2016-12-21T02:40:53.335Z,1021.9
2016-12-21T02:41:43.589Z,1021.89
2016-12-21T02:42:32.787Z,1021.93
2016-12-21T02:43:21.831Z,1021.94
2016-12-21T02:44:10.658Z,1021.92
2016-12-21T02:45:00.440Z,1021.99
2016-12-21T02:45:49.490Z,1021.92
2016-12-21T02:46:38.283Z,1021.9
2016-12-21T02:47:26.610Z,1021.88
2016-12-21T02:48:15.702Z,1021.85
2016-12-21T02:49:04.488Z,1021.93
2016-12-21T02:49:52.991Z,1021.96
2016-12-21T02:50:42.514Z,1021.99
2016-12-21T02:51:31.916Z,1022
2016-12-21T02:52:21.126Z,1021.97
2016-12-21T02:53:10.789Z,1021.98
2016-12-21T02:53:59.153Z,1021.85
2016-12-21T02:54:47.765Z,1021.87
2016-12-21T02:55:36.387Z,1021.88
2016-12-21T02:56:26.138Z,1021.85
2016-12-21T02:57:15.116Z,1021.81
2016-12-21T02:58:03.926Z,1021.77
2016-12-21T02:58:52.859Z,1021.83
2016-12-21T02:59:42.177Z,1021.88
2016-12-21T03:00:32.009Z,1021.8
2016-12-21T03:01:20.148Z,1021.84
2016-12-21T03:02:09.489Z,1021.82
2016-12-21T03:03:01.228Z,1021.77
2016-12-21T03:03:51.645Z,1021.74
2016-12-21T03:04:40.447Z,1021.74
2016-12-21T03:05:28.878Z,1021.79
2016-12-21T03:06:18.258Z,1021.75
2016-12-21T03:07:07.159Z,1021.76
2016-12-21T03:07:56.416Z,1021.78
2016-12-21T03:08:46.483Z,1021.68
2016-12-21T03:09:35.765Z,1021.71
2016-12-21T03:10:28.011Z,1021.62
2016-12-21T03:11:16.149Z,1021.63
2016-12-21T03:12:06.051Z,1021.66
2016-12-21T03:12:55.376Z,1021.7
2016-12-21T03:13:45.865Z,1021.73
2016-12-21T03:14:35.368Z,1021.79
2016-12-21T03:15:24.507Z,1021.79
2016-12-21T03:16:14.465Z,1021.71
2016-12-21T03:17:04.324Z,1021.72
2016-12-21T03:17:52.959Z,1021.7
2016-12-21T03:18:43.026Z,1021.66
2016-12-21T03:19:32.056Z,1021.73
2016-12-21T03:20:21.157Z,1021.77
2016-12-21T03:21:12.740Z,1021.62
2016-12-21T03:22:04.257Z,1021.62
2016-12-21T03:22:54.288Z,1021.5
2016-12-21T03:23:44.394Z,1021.52
2016-12-21T03:24:32.854Z,1021.55
2016-12-21T03:25:26.338Z,1021.54
2016-12-21T03:26:15.607Z,1021.53
2016-12-21T03:27:06.969Z,1021.54
2016-12-21T03:27:57.736Z,1021.57
2016-12-21T03:28:48.125Z,1021.57
2016-12-21T03:29:40.363Z,1021.52
2016-12-21T03:30:30.973Z,1021.61
2016-12-21T03:31:22.132Z,1021.55
2016-12-21T03:32:11.966Z,1021.53
2016-12-21T03:33:04.924Z,1021.5
2016-12-21T03:33:53.765Z,1021.51
2016-12-21T03:34:42.907Z,1021.54
2016-12-21T03:35:33.411Z,1021.53
2016-12-21T03:36:22.966Z,1021.52
2016-12-21T03:37:11.905Z,1021.53
2016-12-21T03:38:00.605Z,1021.56
2016-12-21T03:38:49.554Z,1021.55
2016-12-21T03:39:38.443Z,1021.53
2016-12-21T03:40:27.337Z,1021.49
2016-12-21T03:41:17.013Z,1021.44
2016-12-21T03:42:06.595Z,1021.47
2016-12-21T03:42:57.635Z,1021.49
2016-12-21T03:43:46.806Z,1021.48
2016-12-21T03:44:34.954Z,1021.53
2016-12-21T03:45:24.535Z,1021.52
2016-12-21T03:46:13.189Z,1021.44
2016-12-21T03:47:01.857Z,1021.42
2016-12-21T03:47:51.932Z,1021.43
2016-12-21T03:48:41.063Z,1021.39
2016-12-21T03:49:30.061Z,1021.35
2016-12-21T03:50:19.025Z,1021.31
2016-12-21T03:51:08.703Z,1021.33
2016-12-21T03:51:56.995Z,1021.3
2016-12-21T03:52:46.636Z,1021.27
2016-12-21T03:53:35.599Z,1021.26
2016-12-21T03:54:24.543Z,1021.27
2016-12-21T03:55:14.508Z,1021.27
2016-12-21T03:56:04.300Z,1021.25
2016-12-21T03:56:52.947Z,1021.26
2016-12-21T03:57:41.969Z,1021.26
2016-12-21T03:58:30.521Z,1021.28
2016-12-21T03:59:19.919Z,1021.32
2016-12-21T04:00:08.968Z,1021.33
2016-12-21T04:00:57.132Z,1021.28
2016-12-21T04:01:46.677Z,1021.26
2016-12-21T04:02:37.587Z,1021.25
2016-12-21T04:03:26.819Z,1021.23
2016-12-21T04:04:16.544Z,1021.18
2016-12-21T04:05:05.943Z,1021.15
2016-12-21T04:05:55.907Z,1021.2
2016-12-21T04:06:45.103Z,1021.19
2016-12-21T04:07:35.394Z,1021.12
2016-12-21T04:08:27.364Z,1021.17
2016-12-21T04:09:15.909Z,1021.17
2016-12-21T04:10:04.600Z,1021.22
2016-12-21T04:10:54.356Z,1021.18
2016-12-21T04:11:43.987Z,1021.16
2016-12-21T04:12:32.622Z,1021.14
2016-12-21T04:13:21.073Z,1021.16
2016-12-21T04:14:10.145Z,1021.16
2016-12-21T04:14:59.055Z,1021.12
2016-12-21T04:15:50.873Z,1021.13
2016-12-21T04:16:41.406Z,1021.09
2016-12-21T04:17:31.388Z,1021.08
2016-12-21T04:18:22.252Z,1021.09
2016-12-21T04:19:10.634Z,1021.09
2016-12-21T04:19:59.844Z,1021.11
2016-12-21T04:20:48.304Z,1021.11
2016-12-21T04:21:38.847Z,1021.08
2016-12-21T04:22:27.320Z,1021.08
2016-12-21T04:23:16.257Z,1021.17
2016-12-21T04:24:05.013Z,1021.2
2016-12-21T04:24:53.906Z,1021.14
2016-12-21T04:25:42.792Z,1021.11
2016-12-21T04:26:31.132Z,1021.12
2016-12-21T04:27:19.959Z,1021.08
2016-12-21T04:28:08.799Z,1021.08
2016-12-21T04:28:58.126Z,1021.02
2016-12-21T04:29:47.628Z,1021.01
2016-12-21T04:30:36.551Z,1021
2016-12-21T04:31:25.127Z,1021.01
2016-12-21T04:32:13.598Z,1020.94
2016-12-21T04:33:02.903Z,1021
2016-12-21T04:33:51.125Z,1020.96
2016-12-21T04:34:40.297Z,1020.95
2016-12-21T04:35:29.132Z,1020.95
2016-12-21T04:36:17.644Z,1020.92
2016-12-21T04:37:06.541Z,1020.97
2016-12-21T04:37:55.634Z,1020.91
2016-12-21T04:38:44.531Z,1020.85
2016-12-21T04:39:33.430Z,1020.89
2016-12-21T04:40:22.421Z,1020.81
2016-12-21T04:41:11.981Z,1020.9
2016-12-21T04:42:02.433Z,1020.87
2016-12-21T04:42:52.051Z,1020.89
2016-12-21T04:43:41.128Z,1020.83
2016-12-21T04:44:29.828Z,1020.85
2016-12-21T04:45:18.417Z,1020.84
2016-12-21T04:46:07.421Z,1020.83
2016-12-21T04:46:56.363Z,1020.85
2016-12-21T04:47:44.775Z,1020.87
2016-12-21T04:48:33.413Z,1020.84
2016-12-21T04:49:22.453Z,1020.88
2016-12-21T04:50:10.598Z,1020.89
2016-12-21T04:50:59.750Z,1020.89
2016-12-21T04:51:48.435Z,1020.85
2016-12-21T04:52:37.996Z,1020.89
2016-12-21T04:53:25.902Z,1020.86
2016-12-21T04:54:14.780Z,1020.89
2016-12-21T04:55:03.798Z,1020.89
2016-12-21T04:55:52.480Z,1020.9
2016-12-21T04:56:40.897Z,1020.91
2016-12-21T04:57:29.734Z,1020.98
2016-12-21T04:58:19.050Z,1020.98
2016-12-21T04:59:08.119Z,1020.98
2016-12-21T14:11:32.911Z,1021.05
2016-12-21T14:12:15.541Z,1021.04
2016-12-21T14:12:56.013Z,1021.01
2016-12-21T14:13:36.479Z,1021.06
2016-12-21T14:14:17.329Z,1020.96
2016-12-21T14:14:57.851Z,1021.03
2016-12-21T14:15:38.450Z,1021.03
2016-12-21T14:16:19.614Z,1021
2016-12-21T14:17:00.280Z,1021.01
2016-12-21T14:17:40.775Z,1021.17
2016-12-21T14:18:21.262Z,1021.01
2016-12-21T14:19:02.554Z,1021.05
2016-12-21T14:19:43.013Z,1021.02
2016-12-21T14:20:23.497Z,1021
2016-12-21T14:21:04.019Z,1021.05
2016-12-21T14:21:44.568Z,1021.07
2016-12-21T14:22:25.097Z,1021.07
2016-12-21T14:23:05.875Z,1020.98
2016-12-21T14:23:46.402Z,1020.97
2016-12-21T14:24:27.010Z,1020.97
2016-12-21T14:25:07.521Z,1021.11
2016-12-21T14:25:48.072Z,1021.02
2016-12-21T14:26:28.537Z,1021.11
2016-12-21T14:27:09.041Z,1021.14
2016-12-21T14:27:49.496Z,1021.19
2016-12-21T14:28:30.007Z,1021.06
2016-12-21T14:29:10.489Z,1021.09
2016-12-21T14:29:50.995Z,1021.15
2016-12-21T14:30:31.582Z,1021.17
2016-12-21T14:31:12.410Z,1021.14
2016-12-21T14:31:52.787Z,1021.16
2016-12-21T14:32:37.539Z,1021.19
2016-12-21T14:33:20.234Z,1021.24
2016-12-21T14:34:01.205Z,1021.23
2016-12-21T14:34:41.717Z,1021.22
2016-12-21T14:35:22.271Z,1021.21
2016-12-21T14:36:02.740Z,1021.26
2016-12-21T14:36:46.289Z,1021.32
2016-12-21T14:37:27.681Z,1021.4
2016-12-21T14:38:08.223Z,1021.38
2016-12-21T14:38:48.699Z,1021.5
2016-12-21T14:39:29.213Z,1021.34
2016-12-21T14:40:09.831Z,1021.33
2016-12-21T14:40:50.355Z,1021.32
2016-12-21T14:41:30.853Z,1021.37
2016-12-21T14:42:11.343Z,1021.39
2016-12-21T14:42:51.825Z,1021.47
2016-12-21T14:43:32.301Z,1021.39
2016-12-21T14:44:12.808Z,1021.4
2016-12-21T14:44:53.294Z,1021.47
2016-12-21T14:45:33.777Z,1021.39
2016-12-21T14:46:14.310Z,1021.31
2016-12-21T14:46:54.903Z,1021.33
2016-12-21T14:47:35.486Z,1021.39
2016-12-21T14:48:16.166Z,1021.4
2016-12-21T14:48:56.763Z,1021.31
2016-12-21T14:49:37.331Z,1021.39
2016-12-21T14:50:18.431Z,1021.38
2016-12-21T14:50:58.966Z,1021.39
2016-12-21T14:51:39.550Z,1021.34
2016-12-21T14:52:20.074Z,1021.39
2016-12-21T14:53:01.503Z,1021.44
2016-12-21T14:53:42.309Z,1021.41
2016-12-21T14:54:22.787Z,1021.36
2016-12-21T14:55:03.313Z,1021.35
2016-12-21T14:55:43.738Z,1021.36
2016-12-21T14:56:24.224Z,1021.36
2016-12-21T14:57:04.704Z,1021.42
2016-12-21T14:57:45.253Z,1021.35
2016-12-21T14:58:25.676Z,1021.38
2016-12-21T14:59:06.122Z,1021.28
2016-12-21T14:59:46.616Z,1021.38
2016-12-21T15:00:27.095Z,1021.37
2016-12-21T15:01:07.571Z,1021.43
2016-12-21T15:01:48.085Z,1021.41
2016-12-21T15:02:28.537Z,1021.42
2016-12-21T15:03:09.034Z,1021.6
2016-12-21T15:03:49.663Z,1021.46
2016-12-21T15:04:30.156Z,1021.42
2016-12-21T15:05:10.613Z,1021.41
2016-12-21T15:05:51.103Z,1021.42
2016-12-21T15:06:31.594Z,1021.4
2016-12-21T15:07:12.100Z,1021.4
2016-12-21T15:07:52.563Z,1021.37
2016-12-21T15:08:33.049Z,1021.43
2016-12-21T15:09:13.625Z,1021.42
2016-12-21T15:09:54.382Z,1021.41
2016-12-21T15:10:34.959Z,1021.42
2016-12-21T15:11:15.475Z,1021.46
2016-12-21T15:11:55.940Z,1021.47
2016-12-21T15:12:36.427Z,1021.46
2016-12-21T15:13:16.904Z,1021.38
2016-12-21T15:13:57.390Z,1021.47
2016-12-21T15:14:37.887Z,1021.42
2016-12-21T15:15:18.376Z,1021.43
2016-12-21T15:15:58.869Z,1021.46
2016-12-21T15:16:39.346Z,1021.39
2016-12-21T15:17:19.848Z,1021.53
2016-12-21T15:18:00.358Z,1021.48
2016-12-21T15:18:40.859Z,1021.5
2016-12-21T15:19:21.329Z,1021.5
2016-12-21T15:20:02.180Z,1021.46
2016-12-21T15:20:42.643Z,1021.5
2016-12-21T15:21:23.127Z,1021.56
2016-12-21T15:22:03.614Z,1021.69
2016-12-21T15:22:44.163Z,1021.64
2016-12-21T15:23:26.827Z,1021.45
2016-12-21T15:24:07.329Z,1021.45
2016-12-21T15:24:47.835Z,1021.5
2016-12-21T15:25:28.313Z,1021.47
2016-12-21T15:26:08.836Z,1021.46
2016-12-21T15:26:49.316Z,1021.46
2016-12-21T15:27:29.799Z,1021.52
2016-12-21T15:28:10.299Z,1021.45
2016-12-21T15:28:50.771Z,1021.5
2016-12-21T15:29:31.271Z,1021.48
2016-12-21T15:30:11.768Z,1021.5
2016-12-21T15:30:52.235Z,1021.47
2016-12-21T15:31:33.397Z,1021.51
2016-12-21T15:32:13.864Z,1021.58
2016-12-21T15:32:54.344Z,1021.48
2016-12-21T15:33:35.815Z,1021.57
2016-12-21T15:34:16.308Z,1021.56
2016-12-21T15:34:56.782Z,1021.59
2016-12-21T15:35:37.259Z,1021.58
2016-12-21T15:40:03.594Z,1021.56
2016-12-21T15:40:43.887Z,1021.58
2016-12-21T15:41:26.436Z,1021.53
2016-12-21T15:42:07.170Z,1021.59
2016-12-21T15:42:49.256Z,1021.76
2016-12-21T15:43:31.764Z,1021.6
2016-12-21T15:44:16.464Z,1021.62
2016-12-21T15:45:00.050Z,1021.57
2016-12-21T15:45:44.683Z,1021.57
2016-12-21T15:46:27.507Z,1021.63
2016-12-21T15:47:07.975Z,1021.59
2016-12-21T15:47:50.459Z,1021.65
2016-12-21T15:48:32.933Z,1021.71
2016-12-21T15:49:13.429Z,1021.58
2016-12-21T15:49:53.957Z,1021.55
2016-12-21T15:50:34.411Z,1021.66
2016-12-21T15:51:15.842Z,1021.59
2016-12-21T15:51:56.362Z,1021.62
2016-12-21T15:52:36.813Z,1021.53
2016-12-21T15:53:17.336Z,1021.57
2016-12-21T15:53:57.820Z,1021.74
2016-12-21T15:54:38.366Z,1021.59
2016-12-21T15:55:18.937Z,1021.58
2016-12-21T15:55:59.426Z,1021.58
2016-12-21T15:56:39.882Z,1021.62
2016-12-21T15:57:20.398Z,1021.54
2016-12-21T15:58:00.897Z,1021.54
2016-12-21T15:58:41.427Z,1021.55
2016-12-21T15:59:21.904Z,1021.53
2016-12-21T16:00:02.582Z,1021.47
2016-12-21T16:00:43.102Z,1021.61
2016-12-21T16:01:23.625Z,1021.48
2016-12-21T16:02:04.276Z,1021.62
2016-12-21T16:02:45.352Z,1021.49
2016-12-21T16:03:26.009Z,1021.49
2016-12-21T16:04:06.455Z,1021.51
2016-12-21T16:04:46.973Z,1021.54
2016-12-21T16:05:27.466Z,1021.53
2016-12-21T16:06:08.072Z,1021.54
2016-12-21T16:06:48.641Z,1021.51
2016-12-21T16:07:30.813Z,1021.49
2016-12-21T16:08:11.298Z,1021.57
2016-12-21T16:08:51.820Z,1021.61
2016-12-21T16:09:32.370Z,1021.56
2016-12-21T16:10:12.791Z,1021.58
2016-12-21T16:10:53.307Z,1021.55
2016-12-21T16:11:33.782Z,1021.57
2016-12-21T16:12:15.738Z,1021.56
2016-12-21T16:12:56.312Z,1021.64
2016-12-21T16:13:36.782Z,1021.77
2016-12-21T16:14:17.331Z,1021.58
2016-12-21T16:14:57.811Z,1021.52
2016-12-21T16:15:38.300Z,1021.65
2016-12-21T16:16:18.790Z,1021.56
2016-12-21T16:16:59.273Z,1021.61
2016-12-21T16:17:39.768Z,1021.69
2016-12-21T16:18:20.252Z,1021.69
2016-12-21T16:22:27.035Z,1021.69
2016-12-21T16:23:08.474Z,1021.66
2016-12-21T16:23:48.999Z,1021.61
2016-12-21T16:24:29.666Z,1021.68
2016-12-21T16:25:10.109Z,1021.59
2016-12-21T16:27:42.239Z,1021.71
2016-12-21T16:28:25.355Z,1021.75
2016-12-21T16:29:05.888Z,1021.68
2016-12-21T16:29:46.377Z,1021.79
2016-12-21T16:30:26.855Z,1021.76
2016-12-21T16:31:07.323Z,1021.67
2016-12-21T16:31:47.886Z,1021.61
2016-12-21T16:32:28.458Z,1021.71
2016-12-21T16:33:08.944Z,1021.7
2016-12-21T16:33:49.390Z,1021.65
2016-12-21T16:34:29.868Z,1021.65
2016-12-21T16:35:10.333Z,1021.68
2016-12-21T16:35:50.938Z,1021.71
2016-12-21T16:36:31.519Z,1021.7
2016-12-21T16:37:11.938Z,1021.74
2016-12-21T16:37:52.398Z,1021.77
2016-12-21T16:38:32.880Z,1021.71
2016-12-21T16:39:13.388Z,1021.66
2016-12-21T16:39:53.872Z,1021.61
2016-12-21T16:40:34.386Z,1021.67
2016-12-21T16:41:14.887Z,1021.72
2016-12-21T16:41:55.291Z,1021.78
2016-12-21T16:42:35.897Z,1021.76
2016-12-21T16:43:16.325Z,1021.79
2016-12-21T16:43:56.796Z,1021.6
2016-12-21T16:44:37.321Z,1021.65
2016-12-21T16:45:17.784Z,1021.75
2016-12-21T16:45:58.263Z,1021.77
2016-12-21T16:46:38.740Z,1021.74
2016-12-21T16:47:19.213Z,1021.69
2016-12-21T16:47:59.914Z,1021.72
2016-12-21T16:48:40.433Z,1021.62
2016-12-21T16:49:20.887Z,1021.66
2016-12-21T16:50:01.396Z,1021.63
2016-12-21T16:50:41.846Z,1021.71
2016-12-21T16:51:22.312Z,1021.65
2016-12-21T16:52:02.801Z,1021.69
2016-12-21T16:52:43.302Z,1021.74
2016-12-21T16:53:23.778Z,1021.69
2016-12-21T16:54:04.273Z,1021.79
2016-12-21T16:54:44.765Z,1021.74
2016-12-21T16:55:25.282Z,1021.87
2016-12-21T16:56:05.783Z,1021.77
2016-12-21T16:56:46.283Z,1021.78
2016-12-21T16:57:26.787Z,1021.69
2016-12-21T16:58:07.263Z,1021.68
2016-12-21T16:58:47.768Z,1021.61
2016-12-21T16:59:28.330Z,1021.67
2016-12-21T17:00:08.816Z,1021.67
2016-12-21T17:00:49.292Z,1021.68
2016-12-21T17:01:29.767Z,1021.78
2016-12-21T17:02:10.252Z,1021.67
2016-12-21T17:02:50.752Z,1021.77
2016-12-21T17:03:31.224Z,1021.64
2016-12-21T17:04:11.698Z,1021.75
2016-12-21T17:04:52.211Z,1021.64
2016-12-21T17:05:32.681Z,1021.72
2016-12-21T17:06:13.179Z,1021.78
2016-12-21T17:06:53.673Z,1021.79
2016-12-21T17:07:34.166Z,1021.81
2016-12-21T17:08:14.669Z,1021.74
2016-12-21T17:08:55.135Z,1021.71
2016-12-21T17:09:35.746Z,1021.8
2016-12-21T17:10:16.238Z,1021.77
2016-12-21T17:10:56.717Z,1021.77
2016-12-21T17:11:37.195Z,1021.72
2016-12-21T17:12:17.633Z,1021.78
2016-12-21T17:12:58.125Z,1021.77
2016-12-21T17:13:38.591Z,1021.7
2016-12-21T17:14:19.059Z,1021.72
2016-12-21T17:14:59.546Z,1021.71
2016-12-21T17:15:40.065Z,1021.49
2016-12-21T17:16:20.553Z,1021.64
2016-12-21T17:17:01.006Z,1021.66
2016-12-21T17:17:41.478Z,1021.67
2016-12-21T17:18:21.975Z,1021.82
2016-12-21T17:19:02.461Z,1021.82
2016-12-21T17:19:42.983Z,1021.84
2016-12-21T17:20:23.479Z,1021.76
2016-12-21T17:21:03.967Z,1021.73
2016-12-21T17:21:44.459Z,1021.75
2016-12-21T17:22:24.934Z,1021.66
2016-12-21T17:23:05.443Z,1021.74
2016-12-21T17:23:45.925Z,1021.75
2016-12-21T17:24:26.389Z,1021.69
2016-12-21T17:25:06.879Z,1021.77
2016-12-21T17:25:47.356Z,1021.76
2016-12-21T17:26:27.848Z,1021.78
2016-12-21T17:27:08.351Z,1021.78
2016-12-21T17:27:48.822Z,1021.77
2016-12-21T17:28:29.264Z,1021.82
2016-12-21T17:29:09.780Z,1021.77
2016-12-21T17:29:50.256Z,1021.87
2016-12-21T17:30:30.747Z,1021.81
2016-12-21T17:31:11.267Z,1021.79
2016-12-21T17:31:51.786Z,1021.77
2016-12-21T17:32:32.280Z,1021.81
2016-12-21T17:33:12.789Z,1021.81
2016-12-21T17:33:53.242Z,1021.86
2016-12-21T17:34:33.715Z,1021.9
2016-12-21T17:35:14.232Z,1021.8
2016-12-21T17:35:54.729Z,1021.97
2016-12-21T17:36:35.241Z,1021.95
2016-12-21T17:37:15.771Z,1021.81
2016-12-21T17:37:56.293Z,1021.9
2016-12-21T17:38:36.813Z,1021.84
2016-12-21T17:39:17.260Z,1021.81
2016-12-21T17:39:57.745Z,1021.81
2016-12-21T17:40:39.248Z,1021.68
2016-12-21T17:41:19.727Z,1021.83
2016-12-21T17:42:00.208Z,1021.75
2016-12-21T17:42:40.683Z,1021.67
2016-12-21T17:43:21.178Z,1021.78
2016-12-21T17:44:01.681Z,1021.82
2016-12-21T17:44:42.152Z,1021.82
2016-12-21T17:45:22.690Z,1021.74
2016-12-21T17:46:03.125Z,1021.84
2016-12-21T17:46:43.643Z,1021.85
2016-12-21T17:47:24.145Z,1021.79
2016-12-21T17:48:04.606Z,1021.76
2016-12-21T17:48:45.127Z,1021.73
2016-12-21T17:49:25.609Z,1021.79
2016-12-21T17:50:06.101Z,1021.84
2016-12-21T17:50:46.571Z,1021.96
2016-12-21T17:51:27.060Z,1021.88
2016-12-21T17:52:07.568Z,1021.89
2016-12-21T17:52:48.075Z,1021.89
2016-12-21T17:53:28.547Z,1021.89
2016-12-21T17:54:09.032Z,1021.86
2016-12-21T17:54:49.462Z,1021.94
2016-12-21T17:55:29.949Z,1021.9
2016-12-21T17:56:10.428Z,1021.93
2016-12-21T17:56:50.993Z,1022.05
2016-12-21T17:57:31.478Z,1021.97
2016-12-21T17:58:11.950Z,1021.95
2016-12-21T17:58:52.421Z,1021.93
2016-12-21T17:59:32.931Z,1021.91
2016-12-21T18:00:13.349Z,1021.91
2016-12-21T18:00:53.839Z,1021.85
2016-12-21T18:01:34.373Z,1021.87
2016-12-21T18:02:14.834Z,1021.82
2016-12-21T18:02:55.352Z,1021.97
2016-12-21T18:03:35.808Z,1022.01
2016-12-21T18:04:16.267Z,1021.93
2016-12-21T18:04:56.776Z,1021.9
2016-12-21T18:05:37.228Z,1021.91
2016-12-21T18:06:17.682Z,1021.89
2016-12-21T18:06:58.171Z,1021.95
2016-12-21T18:07:38.649Z,1021.87
2016-12-21T18:08:19.146Z,1021.87
2016-12-21T18:08:59.614Z,1021.88
2016-12-21T18:09:40.114Z,1021.94
2016-12-21T18:10:20.569Z,1021.96
2016-12-21T18:11:01.066Z,1021.95
2016-12-21T18:11:41.544Z,1021.88
2016-12-21T18:12:22.045Z,1021.94
2016-12-21T18:13:02.507Z,1021.97
2016-12-21T18:13:43.045Z,1021.92
2016-12-21T18:14:23.539Z,1021.95
2016-12-21T18:15:04.053Z,1021.97
2016-12-21T18:15:44.547Z,1022.11
2016-12-21T18:16:25.004Z,1021.96
2016-12-21T18:17:05.513Z,1021.96
2016-12-21T18:17:46.030Z,1021.97
2016-12-21T18:18:26.506Z,1021.89
2016-12-21T18:19:06.991Z,1021.97
2016-12-21T18:19:47.481Z,1021.97
2016-12-21T18:20:27.954Z,1022
2016-12-21T18:21:08.415Z,1022
2016-12-21T18:21:48.933Z,1022.26
2016-12-21T18:22:29.368Z,1022.04
2016-12-21T18:23:09.887Z,1022.01
2016-12-21T18:23:50.359Z,1021.95
2016-12-21T18:24:30.927Z,1021.99
2016-12-21T18:25:11.411Z,1022.04
2016-12-21T18:25:51.892Z,1022.07
2016-12-21T18:26:32.379Z,1022.05
2016-12-21T18:28:30.629Z,1021.99
2016-12-21T18:29:11.245Z,1021.99
2016-12-21T18:29:51.852Z,1021.96
2016-12-21T18:30:32.533Z,1022.01